Clinton, WA

01:49 PDT le 25 septembre 2016 (GMT -0700)
Clinton | | Change Station

Alt. 256 ft 47.94 °N, 122.38 °W | Updated 15 minutes ago

Overcast
Couvert
56.2 ° F
Paraît 56.2 ° F
N
0.0
Vent Variable Vent de NO
Gusts 0.0 mph

Aujourd'hui
Haut(e) -- | Bas -- ° F
--% Risque de précip.
Hier
Haut(e) -- | Bas -- ° F
Precip. -- pouce
Pression 30.40 pouce
Visibilité 10.0 Miles terrestres
Nuages Couvert 6500 ft
Point de rosée 53 ° F
Humidité 88%
Précipitations 0.00 pouce
Profondeur de la couche neigeuse Non disponible.
7:01 AM 6:59 PM
Lune descendante, 29% visible
METAR KPAE 250753Z AUTO 02004KT 10SM OVC065 14/11 A3040 RMK AO2 SLP295 T01390111 401720094
Pression 30.40 pouce
Visibilité 10.0 Miles terrestres
Nuages Couvert 6500 ft
Point de rosée 53 ° F
Humidité 88%
Précipitations 0.00 pouce
Profondeur de la couche neigeuse Non disponible.
7:01 AM 6:59 PM
Lune descendante, 29% visible
METAR KPAE 250753Z AUTO 02004KT 10SM OVC065 14/11 A3040 RMK AO2 SLP295 T01390111 401720094

10-Day Weather Forecast

Almanac

Astronomie

Sep. 25, 2016 Lever Coucher
Temps réel
Crépuscule civil
Crépuscule nautique
Crépuscule astronomique
Lune
Durée de lumière visible
Longueur du jour
Tomorrow will be .
, % of the Moon is Illuminated

Extrêmes aujourd'hui

State Highs State Lows

Community

WunderPhotos

Upload Photos

1,941,554 Photos téléchargées !

WunderBlog® & News

Nearby

Qualité de l'air

  Qualité de l'air Indice de la qualité de l'air Polluant
Not available.

Épaisseur de neige

Station Depth Altitude

Activité sismique

Ville Distance Mag. Time & Date
Minimum magnitude displayed is 2.5.

Températures des eaux côtières

Lieu Température

Stations

Stations météo à proximité

Emplacement de la station Température Refroidissement éolien Point de rosée Humidité Vent Precip. Alt. Mise à jour Type
                   

Watches & Warnings

There are currently no watches in effect.